sensor_id;sensor_type;location;lat;lon;timestamp;P1;durP1;ratioP1;P2;durP2;ratioP2
33862;SDS011;20158;51.436;-2.742;2024-03-08T00:00:34;31.85;;;25.08;;
33862;SDS011;20158;51.436;-2.742;2024-03-08T00:03:19;29.88;;;26.42;;
33862;SDS011;20158;51.436;-2.742;2024-03-08T00:06:04;32.55;;;26.70;;
33862;SDS011;20158;51.436;-2.742;2024-03-08T00:08:49;33.65;;;26.85;;
33862;SDS011;20158;51.436;-2.742;2024-03-08T00:11:34;31.10;;;26.17;;
33862;SDS011;20158;51.436;-2.742;2024-03-08T00:14:21;29.58;;;25.73;;
33862;SDS011;20158;51.436;-2.742;2024-03-08T00:17:06;31.92;;;26.40;;
33862;SDS011;20158;51.436;-2.742;2024-03-08T00:19:50;30.70;;;25.95;;
33862;SDS011;20158;51.436;-2.742;2024-03-08T00:22:35;31.10;;;25.10;;
33862;SDS011;20158;51.436;-2.742;2024-03-08T00:25:20;29.58;;;25.45;;
33862;SDS011;20158;51.436;-2.742;2024-03-08T00:28:05;32.35;;;26.52;;
33862;SDS011;20158;51.436;-2.742;2024-03-08T00:30:49;32.22;;;26.55;;
33862;SDS011;20158;51.436;-2.742;2024-03-08T00:33:35;31.15;;;26.08;;
33862;SDS011;20158;51.436;-2.742;2024-03-08T00:36:20;32.95;;;27.20;;
33862;SDS011;20158;51.436;-2.742;2024-03-08T00:39:05;33.53;;;27.02;;
33862;SDS011;20158;51.436;-2.742;2024-03-08T00:41:50;30.15;;;26.85;;
33862;SDS011;20158;51.436;-2.742;2024-03-08T00:44:35;33.10;;;27.17;;
33862;SDS011;20158;51.436;-2.742;2024-03-08T00:47:19;32.33;;;26.75;;
33862;SDS011;20158;51.436;-2.742;2024-03-08T00:50:04;32.17;;;27.15;;
33862;SDS011;20158;51.436;-2.742;2024-03-08T00:52:48;33.10;;;28.42;;
33862;SDS011;20158;51.436;-2.742;2024-03-08T00:55:34;31.88;;;26.63;;
33862;SDS011;20158;51.436;-2.742;2024-03-08T00:58:18;33.25;;;27.70;;
33862;SDS011;20158;51.436;-2.742;2024-03-08T01:01:03;33.78;;;28.10;;
33862;SDS011;20158;51.436;-2.742;2024-03-08T01:03:48;34.75;;;28.48;;
33862;SDS011;20158;51.436;-2.742;2024-03-08T01:06:33;35.38;;;27.48;;
33862;SDS011;20158;51.436;-2.742;2024-03-08T01:09:18;32.40;;;27.45;;
33862;SDS011;20158;51.436;-2.742;2024-03-08T01:12:04;35.15;;;28.30;;
33862;SDS011;20158;51.436;-2.742;2024-03-08T01:14:50;36.30;;;29.17;;
33862;SDS011;20158;51.436;-2.742;2024-03-08T01:17:35;37.08;;;29.30;;
33862;SDS011;20158;51.436;-2.742;2024-03-08T01:20:20;32.75;;;28.17;;
33862;SDS011;20158;51.436;-2.742;2024-03-08T01:23:04;37.10;;;29.55;;
33862;SDS011;20158;51.436;-2.742;2024-03-08T01:25:50;34.08;;;27.60;;
33862;SDS011;20158;51.436;-2.742;2024-03-08T01:28:40;35.15;;;29.83;;
33862;SDS011;20158;51.436;-2.742;2024-03-08T01:31:25;38.33;;;29.80;;
33862;SDS011;20158;51.436;-2.742;2024-03-08T01:34:09;33.47;;;28.05;;
33862;SDS011;20158;51.436;-2.742;2024-03-08T01:36:54;35.22;;;30.40;;
33862;SDS011;20158;51.436;-2.742;2024-03-08T01:39:41;37.13;;;30.25;;
33862;SDS011;20158;51.436;-2.742;2024-03-08T01:42:26;38.50;;;31.00;;
33862;SDS011;20158;51.436;-2.742;2024-03-08T01:45:11;34.35;;;29.33;;
33862;SDS011;20158;51.436;-2.742;2024-03-08T01:47:57;37.75;;;29.45;;
33862;SDS011;20158;51.436;-2.742;2024-03-08T01:50:41;37.33;;;29.52;;
33862;SDS011;20158;51.436;-2.742;2024-03-08T01:53:27;38.10;;;30.25;;
33862;SDS011;20158;51.436;-2.742;2024-03-08T01:56:14;36.85;;;29.48;;
33862;SDS011;20158;51.436;-2.742;2024-03-08T01:58:59;36.42;;;29.52;;
33862;SDS011;20158;51.436;-2.742;2024-03-08T02:01:43;36.85;;;30.33;;
33862;SDS011;20158;51.436;-2.742;2024-03-08T02:04:28;40.53;;;30.42;;
33862;SDS011;20158;51.436;-2.742;2024-03-08T02:07:14;39.08;;;31.25;;
33862;SDS011;20158;51.436;-2.742;2024-03-08T02:09:59;37.40;;;30.80;;
33862;SDS011;20158;51.436;-2.742;2024-03-08T02:12:44;37.83;;;30.75;;
33862;SDS011;20158;51.436;-2.742;2024-03-08T02:18:34;35.58;;;30.35;;
33862;SDS011;20158;51.436;-2.742;2024-03-08T02:21:18;40.10;;;32.53;;
33862;SDS011;20158;51.436;-2.742;2024-03-08T02:24:06;38.70;;;30.75;;
33862;SDS011;20158;51.436;-2.742;2024-03-08T02:26:51;38.63;;;30.85;;
33862;SDS011;20158;51.436;-2.742;2024-03-08T02:29:37;38.65;;;32.83;;
33862;SDS011;20158;51.436;-2.742;2024-03-08T02:32:24;37.10;;;30.60;;
33862;SDS011;20158;51.436;-2.742;2024-03-08T02:35:09;41.22;;;33.47;;
33862;SDS011;20158;51.436;-2.742;2024-03-08T02:37:54;38.45;;;30.95;;
33862;SDS011;20158;51.436;-2.742;2024-03-08T02:40:38;39.85;;;31.20;;
33862;SDS011;20158;51.436;-2.742;2024-03-08T02:43:23;37.33;;;31.88;;
33862;SDS011;20158;51.436;-2.742;2024-03-08T02:46:07;39.28;;;30.25;;
33862;SDS011;20158;51.436;-2.742;2024-03-08T02:48:52;39.72;;;32.22;;
33862;SDS011;20158;51.436;-2.742;2024-03-08T02:51:37;44.40;;;32.85;;
33862;SDS011;20158;51.436;-2.742;2024-03-08T02:54:22;41.83;;;32.65;;
33862;SDS011;20158;51.436;-2.742;2024-03-08T02:57:07;39.00;;;31.25;;
33862;SDS011;20158;51.436;-2.742;2024-03-08T02:59:53;40.08;;;32.45;;
33862;SDS011;20158;51.436;-2.742;2024-03-08T03:02:38;39.38;;;32.25;;
33862;SDS011;20158;51.436;-2.742;2024-03-08T03:05:23;42.72;;;33.80;;
33862;SDS011;20158;51.436;-2.742;2024-03-08T03:08:07;39.85;;;32.65;;
33862;SDS011;20158;51.436;-2.742;2024-03-08T03:10:52;40.38;;;33.15;;
33862;SDS011;20158;51.436;-2.742;2024-03-08T03:13:37;42.15;;;33.17;;
33862;SDS011;20158;51.436;-2.742;2024-03-08T03:16:22;38.88;;;33.17;;
33862;SDS011;20158;51.436;-2.742;2024-03-08T03:19:09;38.05;;;33.35;;
33862;SDS011;20158;51.436;-2.742;2024-03-08T03:21:53;41.35;;;32.78;;
33862;SDS011;20158;51.436;-2.742;2024-03-08T03:24:38;40.45;;;33.92;;
33862;SDS011;20158;51.436;-2.742;2024-03-08T03:27:22;43.75;;;33.30;;
33862;SDS011;20158;51.436;-2.742;2024-03-08T03:30:08;43.03;;;34.65;;
33862;SDS011;20158;51.436;-2.742;2024-03-08T03:33:05;42.33;;;34.22;;
33862;SDS011;20158;51.436;-2.742;2024-03-08T03:35:50;43.90;;;35.30;;
33862;SDS011;20158;51.436;-2.742;2024-03-08T03:38:36;42.65;;;33.97;;
33862;SDS011;20158;51.436;-2.742;2024-03-08T03:41:20;47.35;;;36.17;;
33862;SDS011;20158;51.436;-2.742;2024-03-08T03:44:05;41.20;;;34.05;;
33862;SDS011;20158;51.436;-2.742;2024-03-08T03:46:52;46.50;;;36.22;;
33862;SDS011;20158;51.436;-2.742;2024-03-08T03:49:37;44.42;;;35.90;;
33862;SDS011;20158;51.436;-2.742;2024-03-08T03:52:22;41.67;;;34.20;;
33862;SDS011;20158;51.436;-2.742;2024-03-08T03:55:07;46.58;;;36.15;;
33862;SDS011;20158;51.436;-2.742;2024-03-08T03:57:52;47.00;;;35.92;;
33862;SDS011;20158;51.436;-2.742;2024-03-08T04:00:37;47.60;;;37.90;;
33862;SDS011;20158;51.436;-2.742;2024-03-08T04:03:21;43.42;;;36.50;;
33862;SDS011;20158;51.436;-2.742;2024-03-08T04:06:06;46.30;;;37.53;;
33862;SDS011;20158;51.436;-2.742;2024-03-08T04:08:51;43.22;;;34.78;;
33862;SDS011;20158;51.436;-2.742;2024-03-08T04:11:35;44.75;;;36.42;;
33862;SDS011;20158;51.436;-2.742;2024-03-08T04:14:20;43.67;;;35.28;;
33862;SDS011;20158;51.436;-2.742;2024-03-08T04:17:05;44.10;;;34.65;;
33862;SDS011;20158;51.436;-2.742;2024-03-08T04:19:49;43.08;;;35.25;;
33862;SDS011;20158;51.436;-2.742;2024-03-08T04:22:37;46.20;;;37.15;;
33862;SDS011;20158;51.436;-2.742;2024-03-08T04:25:23;48.78;;;37.60;;
33862;SDS011;20158;51.436;-2.742;2024-03-08T04:28:08;46.88;;;36.70;;
33862;SDS011;20158;51.436;-2.742;2024-03-08T04:30:55;45.90;;;38.25;;
33862;SDS011;20158;51.436;-2.742;2024-03-08T04:33:40;50.22;;;38.40;;
33862;SDS011;20158;51.436;-2.742;2024-03-08T04:36:25;45.42;;;36.97;;
33862;SDS011;20158;51.436;-2.742;2024-03-08T04:39:10;48.72;;;38.50;;
33862;SDS011;20158;51.436;-2.742;2024-03-08T04:42:01;47.45;;;38.38;;
33862;SDS011;20158;51.436;-2.742;2024-03-08T04:44:53;47.20;;;37.40;;
33862;SDS011;20158;51.436;-2.742;2024-03-08T04:47:38;48.35;;;37.85;;
33862;SDS011;20158;51.436;-2.742;2024-03-08T04:50:22;49.92;;;39.15;;
33862;SDS011;20158;51.436;-2.742;2024-03-08T04:53:07;49.08;;;39.03;;
33862;SDS011;20158;51.436;-2.742;2024-03-08T04:55:52;52.60;;;39.90;;
33862;SDS011;20158;51.436;-2.742;2024-03-08T04:58:37;48.85;;;39.30;;
33862;SDS011;20158;51.436;-2.742;2024-03-08T05:01:21;47.90;;;39.65;;
33862;SDS011;20158;51.436;-2.742;2024-03-08T05:04:06;53.65;;;39.53;;
33862;SDS011;20158;51.436;-2.742;2024-03-08T05:06:50;45.90;;;37.10;;
33862;SDS011;20158;51.436;-2.742;2024-03-08T05:09:36;49.50;;;39.33;;
33862;SDS011;20158;51.436;-2.742;2024-03-08T05:12:21;46.15;;;38.75;;
33862;SDS011;20158;51.436;-2.742;2024-03-08T05:15:06;50.28;;;39.90;;
33862;SDS011;20158;51.436;-2.742;2024-03-08T05:17:51;47.42;;;38.63;;
33862;SDS011;20158;51.436;-2.742;2024-03-08T05:20:35;48.17;;;39.47;;
33862;SDS011;20158;51.436;-2.742;2024-03-08T05:23:21;49.38;;;37.75;;
33862;SDS011;20158;51.436;-2.742;2024-03-08T05:26:06;46.75;;;37.85;;
33862;SDS011;20158;51.436;-2.742;2024-03-08T05:28:50;46.70;;;38.85;;
33862;SDS011;20158;51.436;-2.742;2024-03-08T05:31:41;45.95;;;37.40;;
33862;SDS011;20158;51.436;-2.742;2024-03-08T05:34:33;50.03;;;40.53;;
33862;SDS011;20158;51.436;-2.742;2024-03-08T05:37:18;48.97;;;40.22;;
33862;SDS011;20158;51.436;-2.742;2024-03-08T05:40:05;49.70;;;39.50;;
33862;SDS011;20158;51.436;-2.742;2024-03-08T05:42:52;49.90;;;38.92;;
33862;SDS011;20158;51.436;-2.742;2024-03-08T05:45:36;51.25;;;39.70;;
33862;SDS011;20158;51.436;-2.742;2024-03-08T05:48:21;45.58;;;37.13;;
33862;SDS011;20158;51.436;-2.742;2024-03-08T05:51:06;47.20;;;38.25;;
33862;SDS011;20158;51.436;-2.742;2024-03-08T05:53:50;49.22;;;38.53;;
33862;SDS011;20158;51.436;-2.742;2024-03-08T05:56:37;48.63;;;38.50;;
33862;SDS011;20158;51.436;-2.742;2024-03-08T05:59:22;49.42;;;39.55;;
33862;SDS011;20158;51.436;-2.742;2024-03-08T06:02:07;47.83;;;37.58;;
33862;SDS011;20158;51.436;-2.742;2024-03-08T06:04:52;49.33;;;38.72;;
33862;SDS011;20158;51.436;-2.742;2024-03-08T06:07:37;51.53;;;38.60;;
33862;SDS011;20158;51.436;-2.742;2024-03-08T06:10:24;48.85;;;39.90;;
33862;SDS011;20158;51.436;-2.742;2024-03-08T06:13:08;49.83;;;39.28;;
33862;SDS011;20158;51.436;-2.742;2024-03-08T06:15:53;49.53;;;39.35;;
33862;SDS011;20158;51.436;-2.742;2024-03-08T06:18:38;49.03;;;37.78;;
33862;SDS011;20158;51.436;-2.742;2024-03-08T06:21:25;46.40;;;39.17;;
33862;SDS011;20158;51.436;-2.742;2024-03-08T06:24:09;49.45;;;37.88;;
33862;SDS011;20158;51.436;-2.742;2024-03-08T06:26:54;48.90;;;38.67;;
33862;SDS011;20158;51.436;-2.742;2024-03-08T06:29:39;47.35;;;37.47;;
33862;SDS011;20158;51.436;-2.742;2024-03-08T06:32:23;48.60;;;38.75;;
33862;SDS011;20158;51.436;-2.742;2024-03-08T06:35:08;45.47;;;36.80;;
33862;SDS011;20158;51.436;-2.742;2024-03-08T06:37:54;47.47;;;36.70;;
33862;SDS011;20158;51.436;-2.742;2024-03-08T06:40:38;49.58;;;37.60;;
33862;SDS011;20158;51.436;-2.742;2024-03-08T06:43:24;45.58;;;34.75;;
33862;SDS011;20158;51.436;-2.742;2024-03-08T06:46:16;44.42;;;32.85;;
33862;SDS011;20158;51.436;-2.742;2024-03-08T06:49:01;44.15;;;32.95;;
33862;SDS011;20158;51.436;-2.742;2024-03-08T06:51:47;44.30;;;32.70;;
33862;SDS011;20158;51.436;-2.742;2024-03-08T06:54:32;48.58;;;35.65;;
33862;SDS011;20158;51.436;-2.742;2024-03-08T06:57:17;44.65;;;31.55;;
33862;SDS011;20158;51.436;-2.742;2024-03-08T07:00:02;41.20;;;31.90;;
33862;SDS011;20158;51.436;-2.742;2024-03-08T07:02:47;73.25;;;39.92;;
33862;SDS011;20158;51.436;-2.742;2024-03-08T07:05:34;69.03;;;39.33;;
33862;SDS011;20158;51.436;-2.742;2024-03-08T07:08:19;71.00;;;37.20;;
33862;SDS011;20158;51.436;-2.742;2024-03-08T07:11:04;70.18;;;37.85;;
33862;SDS011;20158;51.436;-2.742;2024-03-08T07:13:49;62.72;;;38.75;;
33862;SDS011;20158;51.436;-2.742;2024-03-08T07:16:34;65.22;;;38.08;;
33862;SDS011;20158;51.436;-2.742;2024-03-08T07:19:23;66.22;;;36.60;;
33862;SDS011;20158;51.436;-2.742;2024-03-08T07:22:08;55.88;;;35.10;;
33862;SDS011;20158;51.436;-2.742;2024-03-08T07:24:52;55.15;;;35.67;;
33862;SDS011;20158;51.436;-2.742;2024-03-08T07:27:54;54.50;;;34.20;;
33862;SDS011;20158;51.436;-2.742;2024-03-08T07:30:39;51.70;;;33.35;;
33862;SDS011;20158;51.436;-2.742;2024-03-08T07:33:30;52.17;;;33.05;;
33862;SDS011;20158;51.436;-2.742;2024-03-08T07:36:14;44.00;;;31.98;;
33862;SDS011;20158;51.436;-2.742;2024-03-08T07:38:59;39.00;;;29.25;;
33862;SDS011;20158;51.436;-2.742;2024-03-08T07:41:43;43.67;;;31.08;;
33862;SDS011;20158;51.436;-2.742;2024-03-08T07:44:27;42.00;;;29.33;;
33862;SDS011;20158;51.436;-2.742;2024-03-08T07:47:13;47.40;;;30.98;;
33862;SDS011;20158;51.436;-2.742;2024-03-08T07:49:58;44.00;;;31.83;;
33862;SDS011;20158;51.436;-2.742;2024-03-08T07:52:43;42.97;;;30.50;;
33862;SDS011;20158;51.436;-2.742;2024-03-08T07:55:28;40.97;;;29.95;;
33862;SDS011;20158;51.436;-2.742;2024-03-08T07:58:14;37.67;;;28.00;;
33862;SDS011;20158;51.436;-2.742;2024-03-08T08:00:59;38.60;;;28.10;;
33862;SDS011;20158;51.436;-2.742;2024-03-08T08:03:44;37.95;;;29.70;;
33862;SDS011;20158;51.436;-2.742;2024-03-08T08:06:29;35.20;;;28.88;;
33862;SDS011;20158;51.436;-2.742;2024-03-08T08:09:17;36.28;;;27.75;;
33862;SDS011;20158;51.436;-2.742;2024-03-08T08:12:11;33.85;;;27.25;;
33862;SDS011;20158;51.436;-2.742;2024-03-08T08:14:56;35.92;;;27.80;;
33862;SDS011;20158;51.436;-2.742;2024-03-08T08:17:44;36.03;;;28.33;;
33862;SDS011;20158;51.436;-2.742;2024-03-08T08:20:28;33.83;;;27.05;;
33862;SDS011;20158;51.436;-2.742;2024-03-08T08:23:13;34.90;;;27.05;;
33862;SDS011;20158;51.436;-2.742;2024-03-08T08:25:58;36.45;;;28.83;;
33862;SDS011;20158;51.436;-2.742;2024-03-08T08:28:43;33.45;;;26.50;;
33862;SDS011;20158;51.436;-2.742;2024-03-08T08:31:29;34.05;;;27.75;;
33862;SDS011;20158;51.436;-2.742;2024-03-08T08:34:16;33.92;;;27.55;;
33862;SDS011;20158;51.436;-2.742;2024-03-08T08:37:03;34.20;;;27.50;;
33862;SDS011;20158;51.436;-2.742;2024-03-08T08:39:48;34.58;;;28.33;;
33862;SDS011;20158;51.436;-2.742;2024-03-08T08:42:38;33.17;;;26.77;;
33862;SDS011;20158;51.436;-2.742;2024-03-08T08:45:22;35.38;;;28.98;;
33862;SDS011;20158;51.436;-2.742;2024-03-08T08:48:07;33.40;;;27.77;;
33862;SDS011;20158;51.436;-2.742;2024-03-08T08:50:51;36.22;;;28.80;;
33862;SDS011;20158;51.436;-2.742;2024-03-08T08:53:37;33.10;;;29.27;;
33862;SDS011;20158;51.436;-2.742;2024-03-08T08:56:21;35.28;;;29.40;;
33862;SDS011;20158;51.436;-2.742;2024-03-08T08:59:06;35.50;;;29.27;;
33862;SDS011;20158;51.436;-2.742;2024-03-08T09:01:51;35.30;;;28.52;;
33862;SDS011;20158;51.436;-2.742;2024-03-08T09:04:37;37.38;;;31.17;;
33862;SDS011;20158;51.436;-2.742;2024-03-08T09:07:22;32.90;;;29.02;;
33862;SDS011;20158;51.436;-2.742;2024-03-08T09:10:06;37.22;;;30.10;;
33862;SDS011;20158;51.436;-2.742;2024-03-08T09:12:53;34.55;;;29.58;;
33862;SDS011;20158;51.436;-2.742;2024-03-08T09:15:38;38.75;;;31.63;;
33862;SDS011;20158;51.436;-2.742;2024-03-08T09:18:24;37.45;;;30.67;;
33862;SDS011;20158;51.436;-2.742;2024-03-08T09:21:08;35.13;;;29.75;;
33862;SDS011;20158;51.436;-2.742;2024-03-08T09:23:53;35.05;;;30.00;;
33862;SDS011;20158;51.436;-2.742;2024-03-08T09:26:38;37.00;;;29.63;;
33862;SDS011;20158;51.436;-2.742;2024-03-08T09:29:25;36.78;;;30.80;;
33862;SDS011;20158;51.436;-2.742;2024-03-08T09:32:09;36.42;;;30.92;;
33862;SDS011;20158;51.436;-2.742;2024-03-08T09:34:55;37.63;;;30.77;;
33862;SDS011;20158;51.436;-2.742;2024-03-08T09:37:40;39.08;;;30.20;;
33862;SDS011;20158;51.436;-2.742;2024-03-08T09:40:24;41.03;;;31.67;;
33862;SDS011;20158;51.436;-2.742;2024-03-08T09:43:09;33.35;;;28.85;;
33862;SDS011;20158;51.436;-2.742;2024-03-08T09:45:57;39.40;;;29.88;;
33862;SDS011;20158;51.436;-2.742;2024-03-08T09:48:42;39.15;;;29.50;;
33862;SDS011;20158;51.436;-2.742;2024-03-08T09:51:27;35.63;;;30.38;;
33862;SDS011;20158;51.436;-2.742;2024-03-08T09:54:12;38.35;;;30.27;;
33862;SDS011;20158;51.436;-2.742;2024-03-08T09:56:57;35.80;;;29.27;;
33862;SDS011;20158;51.436;-2.742;2024-03-08T09:59:41;36.63;;;30.00;;
33862;SDS011;20158;51.436;-2.742;2024-03-08T10:02:30;34.35;;;30.40;;
33862;SDS011;20158;51.436;-2.742;2024-03-08T10:05:15;36.22;;;29.77;;
33862;SDS011;20158;51.436;-2.742;2024-03-08T10:08:00;36.13;;;29.67;;
33862;SDS011;20158;51.436;-2.742;2024-03-08T10:10:45;36.42;;;30.50;;
33862;SDS011;20158;51.436;-2.742;2024-03-08T10:13:30;33.78;;;29.55;;
33862;SDS011;20158;51.436;-2.742;2024-03-08T10:16:16;35.50;;;29.90;;
33862;SDS011;20158;51.436;-2.742;2024-03-08T10:19:03;38.63;;;29.23;;
33862;SDS011;20158;51.436;-2.742;2024-03-08T10:21:49;33.92;;;28.50;;
33862;SDS011;20158;51.436;-2.742;2024-03-08T10:24:37;32.67;;;28.58;;
33862;SDS011;20158;51.436;-2.742;2024-03-08T10:27:22;36.20;;;29.23;;
33862;SDS011;20158;51.436;-2.742;2024-03-08T10:30:10;37.35;;;29.52;;
33862;SDS011;20158;51.436;-2.742;2024-03-08T10:32:58;36.58;;;30.45;;
33862;SDS011;20158;51.436;-2.742;2024-03-08T10:35:42;35.72;;;28.70;;
33862;SDS011;20158;51.436;-2.742;2024-03-08T10:38:27;33.60;;;28.58;;
33862;SDS011;20158;51.436;-2.742;2024-03-08T10:41:17;34.83;;;26.15;;
33862;SDS011;20158;51.436;-2.742;2024-03-08T10:47:00;34.50;;;28.65;;
33862;SDS011;20158;51.436;-2.742;2024-03-08T10:50:00;37.40;;;28.95;;
33862;SDS011;20158;51.436;-2.742;2024-03-08T10:53:05;32.25;;;28.00;;
33862;SDS011;20158;51.436;-2.742;2024-03-08T10:55:50;32.47;;;27.10;;
33862;SDS011;20158;51.436;-2.742;2024-03-08T10:58:37;34.95;;;27.25;;
33862;SDS011;20158;51.436;-2.742;2024-03-08T11:01:23;33.45;;;27.17;;
33862;SDS011;20158;51.436;-2.742;2024-03-08T11:04:09;31.70;;;26.75;;
33862;SDS011;20158;51.436;-2.742;2024-03-08T11:07:00;34.00;;;27.45;;
33862;SDS011;20158;51.436;-2.742;2024-03-08T11:09:53;29.38;;;25.05;;
33862;SDS011;20158;51.436;-2.742;2024-03-08T11:12:40;32.08;;;25.90;;
33862;SDS011;20158;51.436;-2.742;2024-03-08T11:15:24;29.58;;;24.83;;
33862;SDS011;20158;51.436;-2.742;2024-03-08T11:18:09;29.08;;;24.90;;
33862;SDS011;20158;51.436;-2.742;2024-03-08T11:20:54;29.70;;;24.95;;
33862;SDS011;20158;51.436;-2.742;2024-03-08T11:23:39;31.02;;;25.02;;
33862;SDS011;20158;51.436;-2.742;2024-03-08T11:26:23;32.35;;;25.48;;
33862;SDS011;20158;51.436;-2.742;2024-03-08T11:32:12;29.27;;;25.00;;
33862;SDS011;20158;51.436;-2.742;2024-03-08T11:34:59;28.73;;;24.10;;
33862;SDS011;20158;51.436;-2.742;2024-03-08T11:37:44;29.55;;;24.23;;
33862;SDS011;20158;51.436;-2.742;2024-03-08T11:40:29;28.88;;;24.13;;
33862;SDS011;20158;51.436;-2.742;2024-03-08T11:43:13;29.40;;;22.35;;
33862;SDS011;20158;51.436;-2.742;2024-03-08T11:46:10;26.42;;;23.13;;
33862;SDS011;20158;51.436;-2.742;2024-03-08T11:48:58;26.83;;;23.92;;
33862;SDS011;20158;51.436;-2.742;2024-03-08T11:51:44;28.73;;;23.63;;
33862;SDS011;20158;51.436;-2.742;2024-03-08T11:54:28;27.98;;;23.15;;
33862;SDS011;20158;51.436;-2.742;2024-03-08T11:57:14;25.77;;;22.70;;
33862;SDS011;20158;51.436;-2.742;2024-03-08T11:59:59;26.85;;;23.08;;
33862;SDS011;20158;51.436;-2.742;2024-03-08T12:03:00;29.67;;;23.00;;
33862;SDS011;20158;51.436;-2.742;2024-03-08T12:05:47;28.27;;;23.08;;
33862;SDS011;20158;51.436;-2.742;2024-03-08T12:08:41;27.13;;;22.70;;
33862;SDS011;20158;51.436;-2.742;2024-03-08T12:11:25;27.38;;;22.83;;
33862;SDS011;20158;51.436;-2.742;2024-03-08T12:14:10;28.65;;;22.58;;
33862;SDS011;20158;51.436;-2.742;2024-03-08T12:16:55;28.60;;;23.48;;
33862;SDS011;20158;51.436;-2.742;2024-03-08T12:19:40;28.60;;;22.33;;
33862;SDS011;20158;51.436;-2.742;2024-03-08T12:22:29;25.00;;;21.05;;
33862;SDS011;20158;51.436;-2.742;2024-03-08T12:25:14;25.40;;;21.67;;
33862;SDS011;20158;51.436;-2.742;2024-03-08T12:28:09;26.45;;;21.80;;
33862;SDS011;20158;51.436;-2.742;2024-03-08T12:30:56;28.67;;;22.10;;
33862;SDS011;20158;51.436;-2.742;2024-03-08T12:33:50;26.77;;;21.80;;
33862;SDS011;20158;51.436;-2.742;2024-03-08T12:36:35;27.63;;;22.30;;
33862;SDS011;20158;51.436;-2.742;2024-03-08T12:39:20;25.05;;;21.65;;
33862;SDS011;20158;51.436;-2.742;2024-03-08T12:42:12;23.77;;;20.50;;
33862;SDS011;20158;51.436;-2.742;2024-03-08T12:44:56;25.70;;;21.13;;
33862;SDS011;20158;51.436;-2.742;2024-03-08T12:47:41;24.92;;;20.70;;
33862;SDS011;20158;51.436;-2.742;2024-03-08T12:50:25;24.65;;;21.30;;
33862;SDS011;20158;51.436;-2.742;2024-03-08T12:53:10;26.20;;;20.95;;
33862;SDS011;20158;51.436;-2.742;2024-03-08T12:55:54;25.80;;;21.02;;
33862;SDS011;20158;51.436;-2.742;2024-03-08T12:58:40;27.33;;;22.13;;
33862;SDS011;20158;51.436;-2.742;2024-03-08T13:01:27;24.63;;;21.33;;
33862;SDS011;20158;51.436;-2.742;2024-03-08T13:04:12;25.83;;;21.55;;
33862;SDS011;20158;51.436;-2.742;2024-03-08T13:06:56;23.98;;;21.13;;
33862;SDS011;20158;51.436;-2.742;2024-03-08T13:09:41;25.95;;;21.27;;
33862;SDS011;20158;51.436;-2.742;2024-03-08T13:12:26;24.00;;;20.67;;
33862;SDS011;20158;51.436;-2.742;2024-03-08T13:15:11;25.55;;;21.45;;
33862;SDS011;20158;51.436;-2.742;2024-03-08T13:18:03;24.23;;;21.17;;
33862;SDS011;20158;51.436;-2.742;2024-03-08T13:20:49;22.92;;;20.40;;
33862;SDS011;20158;51.436;-2.742;2024-03-08T13:23:36;24.33;;;20.00;;
33862;SDS011;20158;51.436;-2.742;2024-03-08T13:26:24;22.67;;;19.33;;
33862;SDS011;20158;51.436;-2.742;2024-03-08T13:29:09;23.08;;;20.17;;
33862;SDS011;20158;51.436;-2.742;2024-03-08T13:31:54;25.55;;;20.55;;
33862;SDS011;20158;51.436;-2.742;2024-03-08T13:34:40;26.92;;;20.98;;
33862;SDS011;20158;51.436;-2.742;2024-03-08T13:37:31;22.42;;;19.58;;
33862;SDS011;20158;51.436;-2.742;2024-03-08T13:40:17;24.23;;;20.40;;
33862;SDS011;20158;51.436;-2.742;2024-03-08T13:43:04;25.42;;;21.15;;
33862;SDS011;20158;51.436;-2.742;2024-03-08T13:45:49;25.55;;;20.13;;
33862;SDS011;20158;51.436;-2.742;2024-03-08T13:48:34;22.30;;;19.02;;
33862;SDS011;20158;51.436;-2.742;2024-03-08T13:51:18;21.45;;;18.88;;
33862;SDS011;20158;51.436;-2.742;2024-03-08T13:54:06;22.42;;;17.80;;
33862;SDS011;20158;51.436;-2.742;2024-03-08T13:56:50;20.95;;;18.60;;
33862;SDS011;20158;51.436;-2.742;2024-03-08T13:59:37;22.50;;;19.35;;
33862;SDS011;20158;51.436;-2.742;2024-03-08T14:02:22;22.80;;;18.58;;
33862;SDS011;20158;51.436;-2.742;2024-03-08T14:05:11;20.38;;;18.17;;
33862;SDS011;20158;51.436;-2.742;2024-03-08T14:07:58;21.13;;;17.67;;
33862;SDS011;20158;51.436;-2.742;2024-03-08T14:10:44;20.90;;;18.65;;
33862;SDS011;20158;51.436;-2.742;2024-03-08T14:13:30;20.20;;;17.92;;
33862;SDS011;20158;51.436;-2.742;2024-03-08T14:16:15;19.90;;;17.77;;
33862;SDS011;20158;51.436;-2.742;2024-03-08T14:19:00;19.95;;;17.58;;
33862;SDS011;20158;51.436;-2.742;2024-03-08T14:21:49;21.63;;;18.08;;
33862;SDS011;20158;51.436;-2.742;2024-03-08T14:24:35;22.98;;;18.65;;
33862;SDS011;20158;51.436;-2.742;2024-03-08T14:27:20;19.80;;;16.73;;
33862;SDS011;20158;51.436;-2.742;2024-03-08T14:30:05;21.52;;;17.33;;
33862;SDS011;20158;51.436;-2.742;2024-03-08T14:32:54;20.13;;;17.45;;
33862;SDS011;20158;51.436;-2.742;2024-03-08T14:35:39;19.45;;;16.90;;
33862;SDS011;20158;51.436;-2.742;2024-03-08T14:38:24;20.52;;;17.80;;
33862;SDS011;20158;51.436;-2.742;2024-03-08T14:41:11;22.20;;;18.95;;
33862;SDS011;20158;51.436;-2.742;2024-03-08T14:43:55;19.20;;;17.02;;
33862;SDS011;20158;51.436;-2.742;2024-03-08T14:46:41;18.35;;;16.45;;
33862;SDS011;20158;51.436;-2.742;2024-03-08T14:49:27;20.73;;;17.17;;
33862;SDS011;20158;51.436;-2.742;2024-03-08T14:52:13;21.23;;;17.27;;
33862;SDS011;20158;51.436;-2.742;2024-03-08T14:55:12;19.90;;;16.08;;
33862;SDS011;20158;51.436;-2.742;2024-03-08T14:57:58;22.33;;;17.27;;
33862;SDS011;20158;51.436;-2.742;2024-03-08T15:00:43;18.95;;;16.95;;
33862;SDS011;20158;51.436;-2.742;2024-03-08T15:03:27;19.85;;;17.65;;
33862;SDS011;20158;51.436;-2.742;2024-03-08T15:06:13;20.08;;;16.75;;
33862;SDS011;20158;51.436;-2.742;2024-03-08T15:08:59;20.05;;;17.25;;
33862;SDS011;20158;51.436;-2.742;2024-03-08T15:11:46;19.00;;;16.83;;
33862;SDS011;20158;51.436;-2.742;2024-03-08T15:14:33;17.73;;;15.77;;
33862;SDS011;20158;51.436;-2.742;2024-03-08T15:17:18;22.70;;;16.70;;
33862;SDS011;20158;51.436;-2.742;2024-03-08T15:20:05;18.25;;;15.65;;
33862;SDS011;20158;51.436;-2.742;2024-03-08T15:22:58;19.58;;;17.35;;
33862;SDS011;20158;51.436;-2.742;2024-03-08T15:25:43;18.48;;;16.48;;
33862;SDS011;20158;51.436;-2.742;2024-03-08T15:28:30;18.33;;;16.42;;
33862;SDS011;20158;51.436;-2.742;2024-03-08T15:31:20;19.38;;;16.70;;
33862;SDS011;20158;51.436;-2.742;2024-03-08T15:34:06;19.23;;;16.60;;
33862;SDS011;20158;51.436;-2.742;2024-03-08T15:36:50;18.65;;;16.73;;
33862;SDS011;20158;51.436;-2.742;2024-03-08T15:39:35;19.02;;;16.08;;
33862;SDS011;20158;51.436;-2.742;2024-03-08T15:42:22;18.92;;;16.95;;
33862;SDS011;20158;51.436;-2.742;2024-03-08T15:45:06;19.63;;;17.52;;
33862;SDS011;20158;51.436;-2.742;2024-03-08T15:47:53;17.77;;;15.85;;
33862;SDS011;20158;51.436;-2.742;2024-03-08T15:50:37;18.60;;;15.50;;
33862;SDS011;20158;51.436;-2.742;2024-03-08T15:53:22;16.55;;;14.85;;
33862;SDS011;20158;51.436;-2.742;2024-03-08T15:56:07;17.88;;;15.98;;
33862;SDS011;20158;51.436;-2.742;2024-03-08T15:58:52;16.10;;;14.40;;
33862;SDS011;20158;51.436;-2.742;2024-03-08T16:01:37;17.08;;;15.27;;
33862;SDS011;20158;51.436;-2.742;2024-03-08T16:04:21;17.85;;;15.98;;